Time,TemperatureF,DewpointF,PressureIn,WindDirection,WindDirectionDegrees,WindSpeedMPH,WindSpeedGustMPH,Humidity,HourlyPrecipIn,Conditions,Clouds,dailyrainin,SoftwareType,DateUTC
2013-01-24 00:03:00,3.0,-9.0,-100.00,West,268,7.0,15.0,55,0.00,,,-99.99,,2013-01-24 05:03:00,
2013-01-24 00:12:00,3.0,-9.0,-100.00,West,267,7.0,14.0,56,0.00,,,-99.99,,2013-01-24 05:12:00,
2013-01-24 00:22:00,3.0,-9.0,-100.00,West,268,8.0,16.0,56,0.00,,,-99.99,,2013-01-24 05:22:00,
2013-01-24 00:33:00,3.0,-9.0,-100.00,West,265,7.0,16.0,57,0.00,,,-99.99,,2013-01-24 05:33:00,
2013-01-24 00:42:00,3.0,-9.0,-100.00,West,264,7.0,19.0,58,0.00,,,-99.99,,2013-01-24 05:42:00,
2013-01-24 00:52:00,2.0,-10.0,-100.00,West,260,8.0,16.0,56,0.00,,,-99.99,,2013-01-24 05:52:00,
2013-01-24 01:03:00,2.0,-9.0,-100.00,West,263,9.0,18.0,57,0.00,,,-99.99,,2013-01-24 06:03:00,
2013-01-24 01:12:00,2.0,-10.0,-100.00,WSW,257,9.0,19.0,57,0.00,,,-99.99,,2013-01-24 06:12:00,
2013-01-24 01:22:00,2.0,-8.0,-100.00,West,263,7.0,17.0,60,0.00,,,-99.99,,2013-01-24 06:22:00,
2013-01-24 01:32:00,2.0,-9.0,-100.00,West,272,7.0,17.0,59,0.00,,,-99.99,,2013-01-24 06:32:00,
2013-01-24 01:42:00,2.0,-10.0,-100.00,West,272,7.0,17.0,55,0.00,,,-99.99,,2013-01-24 06:42:00,
2013-01-24 01:52:00,2.0,-11.0,-100.00,West,277,7.0,17.0,53,0.00,,,-99.99,,2013-01-24 06:52:00,
2013-01-24 02:03:00,2.0,-10.0,-100.00,West,275,7.0,14.0,57,0.00,,,-99.99,,2013-01-24 07:03:00,
2013-01-24 02:12:00,1.0,-12.0,-100.00,WNW,284,8.0,15.0,51,0.00,,,-99.99,,2013-01-24 07:12:00,
2013-01-24 02:23:00,1.0,-12.0,-100.00,WNW,289,9.0,16.0,51,0.00,,,-99.99,,2013-01-24 07:23:00,
2013-01-24 02:33:00,1.0,-12.0,-100.00,WNW,292,9.0,17.0,54,0.00,,,-99.99,,2013-01-24 07:33:00,
2013-01-24 02:42:00,1.0,-13.0,-100.00,WNW,294,9.0,14.0,50,0.00,,,-99.99,,2013-01-24 07:42:00,
2013-01-24 02:52:00,1.0,-14.0,-100.00,WNW,295,9.0,15.0,49,0.00,,,-99.99,,2013-01-24 07:52:00,
2013-01-24 03:02:00,2.0,-10.0,-100.00,West,278,7.0,14.0,58,0.00,,,-99.99,,2013-01-24 08:02:00,
2013-01-24 03:12:00,1.0,-10.0,-100.00,West,274,8.0,14.0,58,0.00,,,-99.99,,2013-01-24 08:12:00,
2013-01-24 03:23:00,1.0,-10.0,-100.00,West,277,7.0,14.0,57,0.00,,,-99.99,,2013-01-24 08:23:00,
2013-01-24 03:33:00,1.0,-11.0,-100.00,WNW,291,7.0,13.0,55,0.00,,,-99.99,,2013-01-24 08:33:00,
2013-01-24 03:43:00,1.0,-11.0,-100.00,West,280,7.0,13.0,57,0.00,,,-99.99,,2013-01-24 08:43:00,
2013-01-24 03:52:00,1.0,-11.0,-100.00,WNW,282,6.0,13.0,56,0.00,,,-99.99,,2013-01-24 08:52:00,
2013-01-24 04:03:00,1.0,-11.0,-100.00,West,277,7.0,13.0,57,0.00,,,-99.99,,2013-01-24 09:03:00,
2013-01-24 04:13:00,1.0,-11.0,-100.00,West,278,7.0,13.0,57,0.00,,,-99.99,,2013-01-24 09:13:00,
2013-01-24 04:23:00,1.0,-10.0,-100.00,West,274,7.0,14.0,59,0.00,,,-99.99,,2013-01-24 09:23:00,
2013-01-24 04:33:00,1.0,-10.0,-100.00,West,277,7.0,14.0,57,0.00,,,-99.99,,2013-01-24 09:33:00,
2013-01-24 04:43:00,1.0,-11.0,-100.00,WNW,289,7.0,13.0,57,0.00,,,-99.99,,2013-01-24 09:43:00,
2013-01-24 04:52:00,1.0,-10.0,-100.00,WNW,285,7.0,13.0,58,0.00,,,-99.99,,2013-01-24 09:52:00,
2013-01-24 05:03:00,1.0,-11.0,-100.00,West,277,6.0,14.0,56,0.00,,,-99.99,,2013-01-24 10:03:00,
2013-01-24 05:12:00,1.0,-11.0,-100.00,West,271,7.0,12.0,57,0.00,,,-99.99,,2013-01-24 10:12:00,
2013-01-24 05:23:00,1.0,-10.0,-100.00,WNW,284,7.0,13.0,58,0.00,,,-99.99,,2013-01-24 10:23:00,
2013-01-24 05:33:00,1.0,-11.0,-100.00,West,274,7.0,15.0,57,0.00,,,-99.99,,2013-01-24 10:33:00,
2013-01-24 05:43:00,0.0,-13.0,-100.00,WNW,285,9.0,15.0,52,0.00,,,-99.99,,2013-01-24 10:43:00,
2013-01-24 05:52:00,1.0,-12.0,-100.00,West,278,8.0,15.0,56,0.00,,,-99.99,,2013-01-24 10:52:00,
2013-01-24 06:03:00,1.0,-12.0,-100.00,WNW,287,9.0,15.0,54,0.00,,,-99.99,,2013-01-24 11:03:00,
2013-01-24 06:12:00,1.0,-9.0,-100.00,WNW,288,9.0,15.0,61,0.00,,,-99.99,,2013-01-24 11:12:00,
2013-01-24 06:23:00,0.0,-13.0,-100.00,WNW,292,9.0,15.0,52,0.00,,,-99.99,,2013-01-24 11:23:00,
2013-01-24 06:33:00,0.0,-12.0,-100.00,WNW,295,10.0,16.0,55,0.00,,,-99.99,,2013-01-24 11:33:00,
2013-01-24 06:43:00,0.0,-12.0,-100.00,WNW,294,9.0,14.0,57,0.00,,,-99.99,,2013-01-24 11:43:00,
2013-01-24 06:53:00,-999.0,-99.9,-100.00,WNW,302,8.0,13.0,-999,-99.99,,,-99.99,,2013-01-24 11:53:00,
2013-01-24 07:03:00,0.0,-11.0,-100.00,WNW,302,9.0,15.0,58,0.00,,,-99.99,,2013-01-24 12:03:00,
2013-01-24 07:12:00,0.0,-12.0,-100.00,WNW,294,8.0,13.0,56,0.00,,,-99.99,,2013-01-24 12:12:00,
2013-01-24 07:23:00,0.0,-11.0,-100.00,West,272,5.0,11.0,59,0.00,,,-99.99,,2013-01-24 12:23:00,
2013-01-24 07:33:00,0.0,-11.0,-100.00,West,264,4.0,11.0,57,0.00,,,-99.99,,2013-01-24 12:33:00,
2013-01-24 07:43:00,1.0,-11.0,-100.00,West,271,6.0,12.0,58,0.00,,,-99.99,,2013-01-24 12:43:00,
2013-01-24 07:53:00,-999.0,-99.9,-100.00,West,260,6.0,16.0,-999,-99.99,,,-99.99,,2013-01-24 12:53:00,
2013-01-24 08:03:00,0.0,-12.0,-100.00,West,268,6.0,14.0,57,0.00,,,-99.99,,2013-01-24 13:03:00,
2013-01-24 08:13:00,1.0,-10.0,-100.00,West,271,6.0,12.0,59,0.00,,,-99.99,,2013-01-24 13:13:00,
2013-01-24 08:23:00,1.0,-12.0,-100.00,West,281,6.0,13.0,54,0.00,,,-99.99,,2013-01-24 13:23:00,
2013-01-24 08:33:00,2.0,-10.0,-100.00,WNW,287,7.0,13.0,57,0.00,,,-99.99,,2013-01-24 13:33:00,
2013-01-24 08:43:00,2.0,-12.0,-100.00,WNW,292,9.0,17.0,53,0.00,,,-99.99,,2013-01-24 13:43:00,
2013-01-24 08:53:00,2.0,-10.0,-100.00,WNW,298,10.0,16.0,57,0.00,,,-99.99,,2013-01-24 13:53:00,
2013-01-24 09:03:00,2.0,-8.0,-100.00,WNW,295,9.0,15.0,60,0.00,,,-99.99,,2013-01-24 14:03:00,
2013-01-24 09:12:00,2.0,-14.0,-100.00,WNW,292,10.0,17.0,46,0.00,,,-99.99,,2013-01-24 14:12:00,
2013-01-24 09:23:00,3.0,-10.0,-100.00,WNW,292,11.0,17.0,53,0.00,,,-99.99,,2013-01-24 14:23:00,
2013-01-24 09:33:00,3.0,-13.0,-100.00,WNW,294,10.0,17.0,46,0.00,,,-99.99,,2013-01-24 14:33:00,
2013-01-24 09:43:00,4.0,-13.0,-100.00,WNW,296,10.0,16.0,45,0.00,,,-99.99,,2013-01-24 14:43:00,
2013-01-24 09:53:00,4.0,-14.0,-100.00,WNW,294,10.0,15.0,43,0.00,,,-99.99,,2013-01-24 14:53:00,
2013-01-24 10:03:00,5.0,-7.0,-100.00,WNW,289,8.0,13.0,56,0.00,,,-99.99,,2013-01-24 15:03:00,
2013-01-24 10:12:00,5.0,-11.0,-100.00,WNW,296,10.0,15.0,47,0.00,,,-99.99,,2013-01-24 15:12:00,
2013-01-24 10:23:00,6.0,-10.0,-100.00,WNW,294,11.0,19.0,47,0.00,,,-99.99,,2013-01-24 15:23:00,
2013-01-24 10:33:00,6.0,-12.0,-100.00,WNW,294,11.0,18.0,43,0.00,,,-99.99,,2013-01-24 15:33:00,
2013-01-24 10:43:00,7.0,-10.0,-100.00,WNW,291,10.0,17.0,44,0.00,,,-99.99,,2013-01-24 15:43:00,
2013-01-24 10:53:00,8.0,-10.0,-100.00,WNW,288,9.0,17.0,43,0.00,,,-99.99,,2013-01-24 15:53:00,
2013-01-24 11:03:00,9.0,-9.0,-100.00,WNW,285,7.0,13.0,43,0.00,,,-99.99,,2013-01-24 16:03:00,
2013-01-24 11:12:00,9.0,-11.0,-100.00,WNW,287,9.0,16.0,39,0.00,,,-99.99,,2013-01-24 16:12:00,
2013-01-24 11:23:00,9.0,-11.0,-100.00,WNW,295,10.0,17.0,38,0.00,,,-99.99,,2013-01-24 16:23:00,
2013-01-24 11:33:00,10.0,-9.0,-100.00,WNW,294,12.0,21.0,42,0.00,,,-99.99,,2013-01-24 16:33:00,
2013-01-24 11:42:00,10.0,-9.0,-100.00,WNW,294,12.0,21.0,42,0.00,,,-99.99,,2013-01-24 16:42:00,
2013-01-24 12:02:00,11.0,-8.0,-100.00,WNW,287,11.0,19.0,42,0.00,,,-99.99,,2013-01-24 17:02:00,
2013-01-24 12:12:00,11.0,-9.0,-100.00,WNW,285,11.0,21.0,38,0.00,,,-99.99,,2013-01-24 17:12:00,
2013-01-24 12:22:00,11.0,-9.0,-100.00,WNW,289,12.0,21.0,40,0.00,,,-99.99,,2013-01-24 17:22:00,
2013-01-24 12:32:00,11.0,-13.0,-100.00,WNW,289,14.0,22.0,33,0.00,,,-99.99,,2013-01-24 17:32:00,
2013-01-24 12:42:00,12.0,-7.0,-100.00,WNW,298,14.0,29.0,41,0.00,,,-99.99,,2013-01-24 17:42:00,
2013-01-24 12:52:00,13.0,-10.0,-100.00,WNW,296,12.0,19.0,36,0.00,,,-99.99,,2013-01-24 17:52:00,
2013-01-24 13:03:00,12.0,-14.0,-100.00,WNW,299,17.0,27.0,30,0.00,,,-99.99,,2013-01-24 18:03:00,
2013-01-24 13:12:00,12.0,-10.0,-100.00,WNW,292,14.0,22.0,35,0.00,,,-99.99,,2013-01-24 18:12:00,
2013-01-24 13:22:00,13.0,-13.0,-100.00,WNW,292,16.0,24.0,31,0.00,,,-99.99,,2013-01-24 18:22:00,
2013-01-24 13:33:00,13.0,-10.0,-100.00,WNW,295,17.0,24.0,35,0.00,,,-99.99,,2013-01-24 18:33:00,
2013-01-24 13:42:00,13.0,-10.0,-100.00,WNW,294,14.0,24.0,34,0.00,,,-99.99,,2013-01-24 18:42:00,
2013-01-24 13:52:00,13.0,-11.0,-100.00,WNW,295,13.0,21.0,32,0.00,,,-99.99,,2013-01-24 18:52:00,
2013-01-24 14:02:00,14.0,-9.0,-100.00,WNW,296,14.0,24.0,34,0.00,,,-99.99,,2013-01-24 19:02:00,
2013-01-24 14:13:00,-999.0,-99.9,-100.00,WNW,292,16.0,28.0,-999,-99.99,,,-99.99,,2013-01-24 19:13:00,
2013-01-24 14:22:00,14.0,-13.0,-100.00,WNW,294,15.0,26.0,29,0.00,,,-99.99,,2013-01-24 19:22:00,
2013-01-24 14:33:00,14.0,-11.0,-100.00,WNW,298,15.0,28.0,31,0.00,,,-99.99,,2013-01-24 19:33:00,
2013-01-24 14:42:00,13.0,-11.0,-100.00,WNW,292,15.0,24.0,33,0.00,,,-99.99,,2013-01-24 19:42:00,
2013-01-24 14:52:00,14.0,-11.0,-100.00,WNW,298,13.0,23.0,31,0.00,,,-99.99,,2013-01-24 19:52:00,
2013-01-24 15:02:00,14.0,-10.0,-100.00,WNW,294,10.0,16.0,32,0.00,,,-99.99,,2013-01-24 20:02:00,
2013-01-24 15:12:00,-999.0,-99.9,-100.00,WNW,292,11.0,17.0,-999,-99.99,,,-99.99,,2013-01-24 20:12:00,
2013-01-24 15:22:00,15.0,-10.0,-100.00,WNW,292,10.0,17.0,32,0.00,,,-99.99,,2013-01-24 20:22:00,
2013-01-24 15:33:00,15.0,-8.0,-100.00,WNW,292,9.0,15.0,35,0.00,,,-99.99,,2013-01-24 20:33:00,
2013-01-24 15:42:00,15.0,-7.0,-100.00,WNW,288,10.0,16.0,36,0.00,,,-99.99,,2013-01-24 20:42:00,
2013-01-24 15:52:00,15.0,-9.0,-100.00,WNW,289,12.0,22.0,34,0.00,,,-99.99,,2013-01-24 20:52:00,
2013-01-24 16:02:00,15.0,-9.0,-100.00,WNW,295,14.0,22.0,32,0.00,,,-99.99,,2013-01-24 21:02:00,
2013-01-24 16:12:00,15.0,-11.0,-100.00,WNW,298,16.0,26.0,30,0.00,,,-99.99,,2013-01-24 21:12:00,
2013-01-24 16:22:00,15.0,-9.0,-100.00,WNW,289,14.0,23.0,33,0.00,,,-99.99,,2013-01-24 21:22:00,
2013-01-24 16:33:00,15.0,-6.0,-100.00,WNW,288,13.0,21.0,38,0.00,,,-99.99,,2013-01-24 21:33:00,
2013-01-24 16:43:00,15.0,-9.0,-100.00,WNW,289,12.0,22.0,34,0.00,,,-99.99,,2013-01-24 21:43:00,
2013-01-24 16:52:00,15.0,-9.0,-100.00,WNW,292,15.0,28.0,34,0.00,,,-99.99,,2013-01-24 21:52:00,
2013-01-24 17:03:00,15.0,-8.0,-100.00,WNW,295,17.0,27.0,35,0.00,,,-99.99,,2013-01-24 22:03:00,
2013-01-24 17:12:00,15.0,-11.0,-100.00,WNW,295,16.0,26.0,30,0.00,,,-99.99,,2013-01-24 22:12:00,
2013-01-24 17:22:00,14.0,-10.0,-100.00,WNW,292,15.0,27.0,32,0.00,,,-99.99,,2013-01-24 22:22:00,
2013-01-24 17:33:00,14.0,-10.0,-100.00,WNW,295,16.0,25.0,32,0.00,,,-99.99,,2013-01-24 22:33:00,
2013-01-24 17:42:00,14.0,-10.0,-100.00,WNW,296,13.0,23.0,32,0.00,,,-99.99,,2013-01-24 22:42:00,
2013-01-24 17:52:00,14.0,-12.0,-100.00,WNW,299,13.0,24.0,30,0.00,,,-99.99,,2013-01-24 22:52:00,
2013-01-24 18:03:00,15.0,-9.0,-100.00,WNW,292,12.0,21.0,34,0.00,,,-99.99,,2013-01-24 23:03:00,
2013-01-24 18:12:00,14.0,-9.0,-100.00,WNW,294,11.0,18.0,35,0.00,,,-99.99,,2013-01-24 23:12:00,
2013-01-24 18:22:00,14.0,-5.0,-100.00,WNW,291,12.0,20.0,41,0.00,,,-99.99,,2013-01-24 23:22:00,
2013-01-24 18:32:00,14.0,-8.0,-100.00,WNW,289,12.0,18.0,37,0.00,,,-99.99,,2013-01-24 23:32:00,
2013-01-24 18:42:00,14.0,-8.0,-100.00,WNW,292,12.0,21.0,36,0.00,,,-99.99,,2013-01-24 23:42:00,
2013-01-24 18:52:00,14.0,-6.0,-100.00,WNW,289,13.0,21.0,40,0.00,,,-99.99,,2013-01-24 23:52:00,
2013-01-24 19:02:00,14.0,-3.0,-100.00,WNW,291,14.0,19.0,45,0.00,,,-99.99,,2013-01-25 00:02:00,
2013-01-24 19:12:00,14.0,-9.0,-100.00,WNW,291,14.0,24.0,35,0.00,,,-99.99,,2013-01-25 00:12:00,
2013-01-24 19:22:00,13.0,-8.0,-100.00,WNW,294,12.0,18.0,37,0.00,,,-99.99,,2013-01-25 00:22:00,
2013-01-24 19:32:00,13.0,-11.0,-100.00,WNW,292,13.0,21.0,33,0.00,,,-99.99,,2013-01-25 00:32:00,
2013-01-24 19:42:00,13.0,-8.0,-100.00,WNW,294,13.0,21.0,38,0.00,,,-99.99,,2013-01-25 00:42:00,
2013-01-24 19:52:00,13.0,-11.0,-100.00,WNW,295,17.0,27.0,32,0.00,,,-99.99,,2013-01-25 00:52:00,
2013-01-24 20:02:00,13.0,-10.0,-100.00,WNW,296,16.0,24.0,35,0.00,,,-99.99,,2013-01-25 01:02:00,
2013-01-24 20:12:00,12.0,-10.0,-100.00,WNW,295,14.0,22.0,36,0.00,,,-99.99,,2013-01-25 01:12:00,
2013-01-24 20:22:00,12.0,-7.0,-100.00,WNW,299,13.0,19.0,40,0.00,,,-99.99,,2013-01-25 01:22:00,
2013-01-24 20:32:00,12.0,-8.0,-100.00,WNW,298,14.0,22.0,39,0.00,,,-99.99,,2013-01-25 01:32:00,
2013-01-24 20:42:00,12.0,-8.0,-100.00,WNW,296,13.0,24.0,40,0.00,,,-99.99,,2013-01-25 01:42:00,
2013-01-24 20:52:00,11.0,-11.0,-100.00,WNW,301,12.0,19.0,35,0.00,,,-99.99,,2013-01-25 01:52:00,
2013-01-24 21:02:00,11.0,-3.0,-100.00,NW,308,12.0,17.0,52,0.00,,,-99.99,,2013-01-25 02:02:00,
2013-01-24 21:11:00,11.0,-6.0,-100.00,WNW,295,12.0,21.0,45,0.00,,,-99.99,,2013-01-25 02:11:00,
2013-01-24 21:22:00,10.0,-9.0,-100.00,WNW,296,17.0,24.0,42,0.00,,,-99.99,,2013-01-25 02:22:00,
2013-01-24 21:32:00,10.0,-9.0,-100.00,WNW,296,15.0,24.0,42,0.00,,,-99.99,,2013-01-25 02:32:00,
2013-01-24 21:42:00,10.0,-7.0,-100.00,WNW,295,15.0,24.0,44,0.00,,,-99.99,,2013-01-25 02:42:00,
2013-01-24 21:52:00,10.0,-8.0,-100.00,WNW,301,16.0,22.0,43,0.00,,,-99.99,,2013-01-25 02:52:00,
2013-01-24 22:02:00,10.0,-7.0,-100.00,NW,305,15.0,25.0,45,0.00,,,-99.99,,2013-01-25 03:02:00,
2013-01-24 22:12:00,10.0,-3.0,-100.00,NW,305,15.0,23.0,55,0.00,,,-99.99,,2013-01-25 03:12:00,
2013-01-24 22:22:00,10.0,-6.0,-100.00,WNW,302,17.0,24.0,48,0.00,,,-99.99,,2013-01-25 03:22:00,
2013-01-24 22:33:00,9.0,-9.0,-100.00,NW,304,14.0,22.0,43,0.00,,,-99.99,,2013-01-25 03:33:00,
2013-01-24 22:42:00,10.0,-5.0,-100.00,WNW,301,13.0,27.0,49,0.00,,,-99.99,,2013-01-25 03:42:00,
2013-01-24 22:52:00,9.0,-7.0,-100.00,WNW,299,14.0,23.0,48,0.00,,,-99.99,,2013-01-25 03:52:00,
2013-01-24 23:02:00,9.0,-4.0,-100.00,WNW,295,17.0,27.0,54,0.00,,,-99.99,,2013-01-25 04:02:00,
2013-01-24 23:12:00,9.0,-7.0,-100.00,WNW,298,17.0,27.0,47,0.00,,,-99.99,,2013-01-25 04:12:00,
2013-01-24 23:22:00,9.0,-4.0,-100.00,WNW,295,17.0,26.0,54,0.00,,,-99.99,,2013-01-25 04:22:00,
2013-01-24 23:32:00,9.0,-7.0,-100.00,WNW,296,17.0,29.0,48,0.00,,,-99.99,,2013-01-25 04:32:00,
2013-01-24 23:42:00,9.0,-4.0,-100.00,WNW,298,16.0,25.0,54,0.00,,,-99.99,,2013-01-25 04:42:00,
2013-01-24 23:51:00,9.0,-7.0,-100.00,WNW,294,18.0,29.0,47,0.00,,,-99.99,,2013-01-25 04:51:00,